Data for 04/10/2015

Time Sea-Level Adjusted Pressure Absolute Pressure Temperature Relative Humidity Dew Point   
(mb) (inHg) (mb) (inHg) (C) (F) (%) (C) (F)
00:05 1018 30.06 848 25.04 1.6 34.9 78 -1.9 28.7
00:10 1018 30.06 848 25.04 1.5 34.8 79 -1.7 28.9
00:15 1018 30.06 848 25.04 1.4 34.6 79 -1.8 28.7
00:20 1018 30.06 848 25.04 1.4 34.5 78 -2.1 28.2
00:25 1018 30.06 848 25.04 1.2 34.1 78 -2.3 27.8
00:30 1018 30.06 848 25.04 1.1 34 78 -2.4 27.7
00:35 1018 30.06 848 25.04 1.1 33.9 78 -2.4 27.6
00:40 1018 30.06 848 25.04 1.3 34.4 77 -2.2 28
00:45 1018 30.06 848 25.04 1.7 35.1 75 -2.2 28
00:50 1018 30.06 848 25.04 1.6 34.9 75 -2.3 27.9
00:55 1018 30.06 848 25.04 1.5 34.7 75 -2.4 27.6
01:00 1018 30.06 848 25.04 1.3 34.4 75 -2.6 27.4
01:05 1018 30.06 848 25.04 1.1 33.9 76 -2.6 27.3
01:10 1018 30.06 848 25.04 0.9 33.5 76 -2.9 26.9
01:15 1018 30.06 848 25.04 0.9 33.6 77 -2.7 27.1
01:20 1018 30.06 848 25.04 0.9 33.7 77 -2.7 27.1
01:25 1018 30.06 848 25.04 0.9 33.6 77 -2.7 27.1
01:30 1018 30.06 848 25.04 0.7 33.3 78 -2.8 27
01:35 1018 30.06 848 25.04 0.8 33.4 77 -2.8 26.9
01:40 1018 30.06 848 25.04 0.7 33.3 78 -2.7 27.1
01:45 1018 30.06 848 25.04 0.7 33.3 78 -2.7 27.1
01:50 1018 30.06 848 25.04 0.8 33.5 76 -2.9 26.8
01:55 1018 30.06 847 25.01 0.8 33.4 77 -2.9 26.8
02:00 1018 30.06 847 25.01 0.7 33.2 75 -3.2 26.2
02:05 1018 30.06 847 25.01 0.7 33.2 76 -3.1 26.4
02:10 1018 30.06 847 25.01 0.7 33.2 76 -3.2 26.3
02:15 1018 30.06 847 25.01 0.5 33 75 -3.3 26
02:20 1018 30.06 847 25.01 0.6 33 75 -3.4 25.9
02:25 1018 30.06 847 25.01 0.6 33.1 74 -3.5 25.8
02:30 1018 30.06 847 25.01 0.9 33.5 73 -3.4 25.9
02:35 1018 30.06 847 25.01 0.6 33.2 75 -3.3 26.1
02:40 1018 30.06 847 25.01 0.4 32.7 75 -3.4 25.8
02:45 1018 30.06 847 25.01 0.5 32.9 76 -3.2 26.2
02:50 1018 30.06 847 25.01 0.5 32.9 76 -3.2 26.2
02:55 1018 30.06 847 25.01 0.3 32.6 77 -3.3 26.1
03:00 1018 30.06 847 25.01 0.1 32.2 78 -3.2 26.2
03:05 1018 30.06 847 25.01 0.2 32.3 78 -3.2 26.2
03:10 1018 30.06 847 25.01 0.1 32.1 79 -3.2 26.3
03:15 1018 30.06 847 25.01 0.2 32.4 78 -3.2 26.3
03:20 1018 30.06 847 25.01 0.4 32.8 77 -3.1 26.4
03:25 1018 30.06 847 25.01 0.3 32.6 77 -3.2 26.2
03:30 1018 30.06 847 25.01 0.2 32.4 77 -3.4 25.9
03:35 1018 30.06 847 25.01 0.1 32.2 77 -3.4 25.8
03:40 1018 30.06 847 25.01 0.1 32.2 77 -3.5 25.8
03:45 1018 30.06 847 25.01 -0 31.9 77 -3.5 25.6
03:50 1018 30.06 847 25.01 -0.1 31.9 77 -3.6 25.5
03:55 1018 30.06 847 25.01 -0 31.9 77 -3.6 25.5
04:00 1018 30.06 847 25.01 0 32 76 -3.6 25.4
04:05 1018 30.06 847 25.01 0.1 32.2 76 -3.6 25.5
04:10 1018 30.06 847 25.01 -0.2 31.7 77 -3.7 25.3
04:15 1018 30.06 847 25.01 -0.2 31.7 77 -3.8 25.2
04:20 1018 30.06 847 25.01 -0.1 31.8 76 -3.8 25.1
04:25 1018 30.06 847 25.01 0 32.1 74 -4 24.8
04:30 1018 30.06 847 25.01 0.6 33.1 73 -3.8 25.2
04:35 1018 30.06 847 25.01 0.6 33 73 -3.8 25.2
04:40 1018 30.06 847 25.01 0.4 32.6 73 -3.9 25
04:45 1018 30.06 847 25.01 0.2 32.4 74 -3.9 24.9
04:50 1018 30.06 847 25.01 0 32 75 -4 24.8
04:55 1018 30.06 847 25.01 -0.2 31.6 75 -4.1 24.5
05:00 1018 30.06 847 25.01 -0.3 31.4 75 -4.3 24.3
05:05 1018 30.06 847 25.01 -0.3 31.5 74 -4.3 24.3
05:10 1018 30.06 847 25.01 -0.3 31.5 74 -4.3 24.3
05:15 1018 30.06 847 25.01 -0.3 31.5 75 -4.2 24.4
05:20 1018 30.06 847 25.01 -0.4 31.2 76 -4.2 24.4
05:25 1018 30.06 847 25.01 -0.6 31 76 -4.3 24.3
05:30 1018 30.06 847 25.01 -0.6 30.9 77 -4.3 24.3
05:35 1018 30.06 847 25.01 -0.6 30.8 77 -4.2 24.4
05:40 1018 30.06 847 25.01 -0.5 31.2 76 -4.1 24.6
05:45 1018 30.06 847 25.01 -0.3 31.5 76 -4 24.8
05:50 1018 30.06 847 25.01 -0.4 31.3 76 -4.1 24.6
05:55 1018 30.06 847 25.01 -0.6 30.9 77 -4.1 24.6
06:00 1018 30.06 847 25.01 -0.6 30.9 77 -4.1 24.6
06:05 1018 30.06 847 25.01 -0.4 31.2 76 -4.2 24.4
06:10 1018 30.06 847 25.01 -0.4 31.2 75 -4.3 24.3
06:15 1018 30.06 847 25.01 -0.4 31.2 75 -4.3 24.2
06:20 1018 30.06 847 25.01 -0.4 31.3 74 -4.5 24
06:25 1018 30.06 847 25.01 -0.1 31.8 72 -4.5 23.9
06:30 1018 30.06 848 25.04 0.3 32.5 71 -4.3 24.2
06:35 1018 30.06 848 25.04 0.6 33 70 -4.3 24.3
06:40 1018 30.06 848 25.04 0.7 33.3 70 -4.2 24.4
06:45 1018 30.06 848 25.04 0.9 33.7 68 -4.4 24.2
06:50 1018 30.06 848 25.04 1.2 34.2 67 -4.2 24.4
06:55 1018 30.06 848 25.04 1.3 34.4 67 -4.1 24.6
07:00 1018 30.06 848 25.04 1.5 34.7 66 -4.1 24.5
07:05 1018 30.06 848 25.04 1.7 35.1 66 -4 24.7
07:10 1019 30.09 848 25.04 1.9 35.5 65 -3.9 25
07:15 1019 30.09 848 25.04 2.3 36.1 63 -4 24.8
07:20 1019 30.09 848 25.04 2.7 36.9 62 -3.9 25
07:25 1018 30.06 848 25.04 2.7 36.8 60 -4.3 24.3
07:30 1018 30.06 848 25.04 2.9 37.2 61 -4 24.8
07:35 1018 30.06 848 25.04 3.7 38.6 58 -3.8 25.2
07:40 1018 30.06 848 25.04 4 39.1 59 -3.4 25.9
07:45 1018 30.06 848 25.04 4.2 39.6 56 -3.8 25.2
07:50 1018 30.06 848 25.04 4.3 39.7 57 -3.5 25.7
07:55 1018 30.06 848 25.04 4.9 40.7 55 -3.5 25.8
08:00 1018 30.06 848 25.04 5.5 41.9 52 -3.5 25.7
08:05 1018 30.06 848 25.04 6 42.8 52 -3.2 26.3
08:10 1018 30.06 848 25.04 6.8 44.2 49 -3.2 26.2
08:15 1018 30.06 848 25.04 6.7 44 47 -3.7 25.3
08:20 1018 30.06 848 25.04 6.7 44 49 -3.4 25.9
08:25 1018 30.06 848 25.04 7.1 44.7 47 -3.5 25.7
08:30 1018 30.06 847 25.01 7.3 45.1 46 -3.4 25.8
08:35 1018 30.06 847 25.01 7.3 45.1 45 -3.8 25.2
08:40 1018 30.06 847 25.01 7.8 46.1 45 -3.4 25.9
08:45 1018 30.06 847 25.01 7.5 45.6 46 -3.4 25.9
08:50 1018 30.06 848 25.04 7.5 45.5 44 -4 24.7
08:55 1018 30.06 848 25.04 8.1 46.6 43 -3.8 25.2
09:00 1018 30.06 847 25.01 8.7 47.6 41 -3.8 25.2
09:05 1018 30.06 847 25.01 9.1 48.4 40 -3.7 25.3
09:10 1018 30.06 847 25.01 9.1 48.4 40 -3.9 24.9
09:15 1018 30.06 847 25.01 8.8 47.8 41 -3.6 25.5
09:20 1018 30.06 847 25.01 9.1 48.3 39 -4.2 24.4
09:25 1018 30.06 847 25.01 9.9 49.8 39 -3.4 26
09:30 1018 30.06 847 25.01 9.5 49.1 38 -3.9 24.9
09:35 1018 30.06 847 25.01 9.4 48.9 41 -3.3 26
09:40 1018 30.06 847 25.01 8.7 47.7 40 -4 24.7
09:45 1018 30.06 847 25.01 9.4 48.9 39 -3.8 25.2
09:50 1018 30.06 847 25.01 9.6 49.3 39 -3.5 25.6
09:55 1018 30.06 847 25.01 9.2 48.5 39 -4.1 24.7
10:00 1018 30.06 847 25.01 10.3 50.6 36 -4 24.7
10:05 1018 30.06 847 25.01 10.3 50.5 37 -3.8 25.1
10:10 1018 30.06 847 25.01 9.9 49.8 38 -3.8 25.2
10:15 1018 30.06 847 25.01 9.6 49.3 38 -3.8 25.1
10:20 1018 30.06 847 25.01 9.7 49.4 39 -3.7 25.4
10:25 1018 30.06 847 25.01 9.9 49.7 40 -3.2 26.3
10:30 1018 30.06 847 25.01 10.2 50.3 38 -3.3 26
10:35 1018 30.06 847 25.01 10.3 50.5 38 -3.4 25.8
10:40 1018 30.06 847 25.01 10.4 50.7 39 -3.1 26.5
10:45 1018 30.06 847 25.01 10.7 51.2 37 -3.3 26.1
10:50 1018 30.06 847 25.01 10.3 50.5 38 -3.3 26.1
10:55 1018 30.06 847 25.01 10.9 51.7 36 -3.6 25.6
11:00 1018 30.06 847 25.01 11.2 52.2 37 -3.1 26.5
11:05 1018 30.06 847 25.01 11 51.9 32 -5.2 22.7
11:10 1018 30.06 847 25.01 11.2 52.2 31 -5.4 22.2
11:15 1018 30.06 847 25.01 11.3 52.3 31 -5.3 22.5
11:20 1018 30.06 847 25.01 11.3 52.3 31 -5.1 22.7
11:25 1017 30.03 847 25.01 11.7 53.1 30 -5.4 22.3
11:30 1017 30.03 846 24.98 12.5 54.6 27 -6.2 20.9
11:35 1017 30.03 846 24.98 12.8 55 24 -7.2 19.1
11:40 1017 30.03 846 24.98 12.1 53.7 26 -6.8 19.8
11:45 1017 30.03 846 24.98 11.9 53.4 24 -8.1 17.4
11:50 1017 30.03 846 24.98 11.9 53.3 23 -8.5 16.8
11:55 1017 30.03 846 24.98 12 53.6 25 -7.2 19
12:00 1017 30.03 846 24.98 12 53.6 25 -7.5 18.5
12:05 1017 30.03 846 24.98 12.6 54.6 24 -7.3 18.8
12:10 1017 30.03 846 24.98 12.6 54.8 25 -7 19.4
12:15 1017 30.03 846 24.98 12.9 55.3 24 -7.3 18.8
12:20 1017 30.03 846 24.98 12.2 54 25 -7.3 18.9
12:25 1017 30.03 846 24.98 12.7 54.9 24 -7.3 18.8
12:30 1017 30.03 846 24.98 13.2 55.8 21 -8.9 16
12:35 1016 30 846 24.98 12.6 54.7 22 -8.6 16.4
12:40 1016 30 846 24.98 13 55.4 21 -8.6 16.5
12:45 1016 30 846 24.98 13.1 55.5 21 -8.5 16.7
12:50 1016 30 846 24.98 12.8 55.1 21 -9 15.8
12:55 1016 30 846 24.98 13.3 56 21 -8.4 17
13:00 1016 30 846 24.98 13.6 56.5 20 -8.7 16.4
13:05 1016 30 845 24.95 13.5 56.2 20 -8.8 16.2
13:10 1016 30 845 24.95 14 57.2 21 -8.2 17.2
13:15 1016 30 845 24.95 13.4 56.2 20 -9 15.8
13:20 1016 30 845 24.95 14 57.1 19 -9.5 15
13:25 1016 30 845 24.95 14.1 57.4 19 -9.1 15.6
13:30 1016 30 845 24.95 14 57.2 20 -8.4 16.9
13:35 1016 30 845 24.95 14 57.3 19 -9.2 15.5
13:40 1016 30 845 24.95 14.3 57.8 20 -8.3 17.1
13:45 1016 30 845 24.95 14.2 57.6 19 -8.8 16.2
13:50 1016 30 845 24.95 14.2 57.6 19 -9.2 15.5
13:55 1016 30 845 24.95 14.2 57.6 20 -8.4 16.9
14:00 1016 30 845 24.95 14.3 57.7 19 -9.1 15.7
14:05 1016 30 845 24.95 14.5 58.1 18 -9.3 15.3
14:10 1016 30 845 24.95 15 58.9 19 -8.7 16.3
14:15 1015 29.97 845 24.95 14.6 58.3 20 -8.4 16.9
14:20 1015 29.97 845 24.95 15 58.9 18 -8.9 16
14:25 1015 29.97 845 24.95 15 59 18 -9.2 15.4
14:30 1015 29.97 844 24.92 14.7 58.5 19 -8.9 15.9
14:35 1015 29.97 844 24.92 14.4 57.9 19 -9.1 15.6
14:40 1015 29.97 844 24.92 14.6 58.3 18 -9.3 15.3
14:45 1015 29.97 844 24.92 14.8 58.7 18 -9.1 15.6
14:50 1015 29.97 844 24.92 14.8 58.7 19 -8.7 16.3
14:55 1015 29.97 844 24.92 15 59 18 -8.9 16
15:00 1015 29.97 844 24.92 15.4 59.8 18 -8.6 16.4
15:05 1015 29.97 844 24.92 15.6 60 18 -8.8 16.2
15:10 1015 29.97 844 24.92 15 58.9 18 -9.1 15.7
15:15 1015 29.97 844 24.92 14.9 58.8 19 -8.6 16.4
15:20 1015 29.97 844 24.92 15.3 59.5 20 -7.7 18.1
15:25 1015 29.97 844 24.92 15.5 59.8 18 -8.6 16.5
15:30 1015 29.97 844 24.92 15.3 59.6 19 -8.4 16.9
15:35 1015 29.97 844 24.92 15.2 59.4 19 -8.3 17.1
15:40 1014 29.94 844 24.92 15.2 59.3 19 -8.4 16.9
15:45 1014 29.94 844 24.92 15.2 59.4 18 -8.9 15.9
15:50 1014 29.94 844 24.92 15.3 59.5 18 -9 15.9
15:55 1014 29.94 844 24.92 15.3 59.6 18 -9 15.7
16:00 1014 29.94 844 24.92 15.3 59.5 19 -8.2 17.2
16:05 1014 29.94 844 24.92 15.4 59.7 18 -8.8 16.2
16:10 1014 29.94 843 24.89 15.2 59.4 18 -9 15.8
16:15 1014 29.94 843 24.89 15.1 59.2 18 -8.9 16
16:20 1014 29.94 843 24.89 15.4 59.7 17 -9.2 15.5
16:25 1014 29.94 843 24.89 15 59.1 18 -9.2 15.4
16:30 1014 29.94 843 24.89 15.1 59.1 17 -9.4 15
16:35 1014 29.94 843 24.89 15.1 59.2 18 -8.8 16.2
16:40 1014 29.94 843 24.89 14.9 58.8 18 -8.9 15.9
16:45 1014 29.94 843 24.89 15 59.1 18 -9.2 15.5
16:50 1014 29.94 843 24.89 15.1 59.2 19 -8.6 16.6
16:55 1014 29.94 843 24.89 14.9 58.8 18 -9.2 15.5
17:00 1014 29.94 843 24.89 15.1 59.2 18 -9 15.9
17:05 1014 29.94 843 24.89 15.2 59.4 17 -9.4 15
17:10 1014 29.94 843 24.89 14.7 58.4 18 -9.2 15.4
17:15 1014 29.94 843 24.89 14.5 58.2 18 -9.3 15.2
17:20 1014 29.94 843 24.89 14.4 58 20 -8 17.6
17:25 1014 29.94 843 24.89 14.2 57.6 20 -8.6 16.5
17:30 1014 29.94 843 24.89 14.2 57.6 20 -8.6 16.6
17:35 1014 29.94 843 24.89 14.2 57.5 20 -8.1 17.3
17:40 1014 29.94 843 24.89 14.2 57.5 19 -8.8 16.2
17:45 1014 29.94 843 24.89 14.1 57.4 20 -8.6 16.5
17:50 1014 29.94 843 24.89 14.1 57.4 20 -8.3 17.1
17:55 1014 29.94 843 24.89 14.2 57.5 20 -8.3 17.1
18:00 1014 29.94 843 24.89 14 57.3 21 -8 17.6
18:05 1013 29.91 843 24.89 14 57.2 21 -7.7 18.2
18:10 1013 29.91 843 24.89 13.9 57 22 -7.5 18.4
18:15 1013 29.91 843 24.89 13.8 56.9 22 -7.7 18.1
18:20 1013 29.91 843 24.89 13.7 56.6 22 -7.7 18.1
18:25 1013 29.91 843 24.89 13.6 56.5 22 -7.7 18.1
18:30 1013 29.91 843 24.89 13.5 56.3 22 -7.5 18.5
18:35 1013 29.91 843 24.89 13.5 56.2 23 -7.3 18.9
18:40 1013 29.91 843 24.89 13.4 56.1 23 -7.2 19
18:45 1013 29.91 843 24.89 13.3 55.9 23 -7.1 19.1
18:50 1013 29.91 843 24.89 13.2 55.7 24 -6.8 19.8
18:55 1013 29.91 843 24.89 12.9 55.2 27 -5.8 21.5
19:00 1013 29.91 843 24.89 12.3 54.2 27 -6.1 21.1
19:05 1013 29.91 843 24.89 12.2 53.9 26 -6.5 20.3
19:10 1013 29.91 843 24.89 12.2 53.9 27 -6 21.2
19:15 1013 29.91 843 24.89 11.9 53.4 29 -5.4 22.2
19:20 1013 29.91 843 24.89 11.2 52.2 31 -5.2 22.7
19:25 1013 29.91 843 24.89 10.7 51.3 32 -5.5 22.2
19:30 1014 29.94 843 24.89 10.6 51 31 -5.7 21.7
19:35 1014 29.94 843 24.89 10.6 51.1 31 -5.8 21.5
19:40 1014 29.94 843 24.89 10.5 50.8 30 -6.2 20.9
19:45 1014 29.94 843 24.89 10.5 50.9 31 -6 21.2
19:50 1014 29.94 843 24.89 10.4 50.8 31 -5.9 21.5
19:55 1014 29.94 843 24.89 10.3 50.6 31 -5.9 21.4
20:00 1014 29.94 843 24.89 10.3 50.5 32 -5.7 21.7
20:05 1014 29.94 843 24.89 10.1 50.3 33 -5.5 22.1
20:10 1014 29.94 843 24.89 9.9 49.8 34 -5.3 22.5
20:15 1014 29.94 843 24.89 9.7 49.4 35 -5.1 22.8
20:20 1014 29.94 843 24.89 9.6 49.2 35 -5.1 22.9
20:25 1014 29.94 843 24.89 9.3 48.7 35 -5.2 22.6
20:30 1014 29.94 843 24.89 9.3 48.8 35 -5.4 22.4
20:35 1014 29.94 843 24.89 9.3 48.7 34 -5.7 21.7
20:40 1014 29.94 843 24.89 9.1 48.4 35 -5.5 22.1
20:45 1014 29.94 843 24.89 9 48.2 35 -5.8 21.5
20:50 1014 29.94 843 24.89 9.2 48.5 33 -6.3 20.7
20:55 1014 29.94 843 24.89 9.5 49.1 32 -6.4 20.5
21:00 1014 29.94 843 24.89 9.6 49.3 33 -6 21.1
21:05 1014 29.94 843 24.89 9.5 49.1 33 -6 21.1
21:10 1014 29.94 843 24.89 9.5 49.1 32 -6.3 20.7
21:15 1014 29.94 843 24.89 9.5 49 32 -6.2 20.8
21:20 1014 29.94 843 24.89 9.4 48.9 32 -6.3 20.6
21:25 1014 29.94 843 24.89 9.6 49.4 31 -6.6 20.2
21:30 1014 29.94 843 24.89 9.7 49.5 31 -6.5 20.3
21:35 1013 29.91 843 24.89 9.7 49.5 31 -6.4 20.5
21:40 1013 29.91 843 24.89 9.6 49.3 32 -6.4 20.5
21:45 1013 29.91 843 24.89 9.4 49 32 -6.5 20.3
21:50 1013 29.91 842 24.86 9.4 48.9 32 -6.4 20.5
21:55 1013 29.91 842 24.86 9.4 48.9 32 -6.4 20.5
22:00 1013 29.91 842 24.86 9.4 49 32 -6.3 20.7
22:05 1013 29.91 842 24.86 9.3 48.7 32 -6.5 20.3
22:10 1013 29.91 842 24.86 9.6 49.3 32 -6.4 20.5
22:15 1013 29.91 842 24.86 9.8 49.7 32 -6.1 21.1
22:20 1013 29.91 842 24.86 9.9 49.9 32 -6.1 21
22:25 1013 29.91 842 24.86 10 49.9 32 -6 21.1
22:30 1013 29.91 842 24.86 10.1 50.2 31 -6.1 21.1
22:35 1013 29.91 842 24.86 10.2 50.3 31 -6.1 21
22:40 1013 29.91 842 24.86 10.2 50.3 31 -6.1 21.1
22:45 1013 29.91 842 24.86 10.1 50.3 31 -6 21.2
22:50 1013 29.91 842 24.86 10.1 50.1 32 -5.8 21.6
22:55 1013 29.91 842 24.86 10 50 32 -5.8 21.6
23:00 1013 29.91 842 24.86 9.9 49.7 33 -5.7 21.7
23:05 1013 29.91 842 24.86 9.9 49.7 32 -5.9 21.4
23:10 1012 29.88 842 24.86 10.1 50.1 32 -5.9 21.5
23:15 1012 29.88 842 24.86 10.1 50.3 32 -5.7 21.8
23:20 1012 29.88 842 24.86 10.2 50.3 31 -6 21.2
23:25 1012 29.88 842 24.86 10.3 50.5 32 -5.9 21.4
23:30 1012 29.88 841 24.83 10.4 50.6 31 -6.2 20.9
23:35 1012 29.88 841 24.83 10.3 50.5 31 -6 21.2
23:40 1012 29.88 841 24.83 10.2 50.3 31 -6.3 20.7
23:45 1012 29.88 841 24.83 10.2 50.3 31 -6.3 20.7
23:50 1012 29.88 841 24.83 10.2 50.3 31 -6.4 20.5
23:55 1012 29.88 841 24.83 10.1 50.2 30 -6.5 20.2
24:00 1012 29.88 841 24.83 10.4 50.8 29 -6.9 19.6